Date,TemperatureHighF,TemperatureAvgF,TemperatureLowF,DewpointHighF,DewpointAvgF,DewpointLowF,HumidityHigh,HumidityAvg,HumidityLow,PressureMaxIn,PressureMinIn,WindSpeedMaxMPH,WindSpeedAvgMPH,GustSpeedMaxMPH,PrecipitationSumIn
2013-11-18,35,35,34,26,25,24,69,67,65,30.19,30.05,4,2,7,0.00
2013-11-19,41,33,26,26,24,22,90,70,49,30.40,30.19,4,1,8,0.00
2013-11-20,43,35,26,31,26,23,91,70,48,30.40,30.21,7,2,16,0.00
2013-11-21,47,42,36,43,39,31,95,90,74,30.25,30.16,7,0,9,0.13
2013-11-22,44,35,24,42,31,22,96,86,69,30.42,30.16,7,2,14,0.00
2013-11-23,28,22,16,23,16,10,94,79,64,30.62,30.33,8,2,21,0.00
2013-11-24,23,20,16,15,12,10,81,72,61,30.66,30.35,6,1,11,0.00
2013-11-25,32,28,20,30,23,12,94,81,56,30.35,30.02,8,3,18,0.00
2013-11-26,33,30,23,31,27,17,93,87,76,30.08,29.98,6,1,11,0.00
2013-11-27,28,22,17,19,14,9,92,72,49,30.25,30.07,9,2,14,0.05
2013-11-28,25,22,16,23,20,14,100,90,80,30.48,30.23,6,1,10,0.00
2013-11-29,29,21,12,24,18,9,94,88,76,30.69,30.47,3,0,6,0.05
2013-11-30,42,32,21,34,26,18,92,79,71,30.52,30.06,9,2,17,0.11
2013-12-1,41,35,32,33,29,25,93,80,57,30.10,30.03,7,0,12,0.00
2013-12-2,39,33,26,31,27,23,95,79,60,30.03,29.89,4,0,8,0.00
2013-12-3,34,32,26,33,29,23,95,88,74,29.92,29.82,9,5,15,0.56
2013-12-4,55,40,34,54,39,33,98,96,85,29.87,29.52,7,4,23,0.13
2013-12-5,54,34,24,49,28,16,87,76,64,30.19,29.53,8,3,19,0.00
2013-12-6,24,20,19,16,14,12,82,75,70,30.46,30.18,4,1,9,0.00
2013-12-7,18,16,8,14,10,5,89,78,66,30.67,30.46,3,1,8,0.00
2013-12-8,20,15,8,18,11,5,92,84,68,30.64,30.02,9,3,14,0.00
2013-12-9,24,21,12,22,16,5,94,83,64,30.15,29.88,9,2,17,0.00
2013-12-10,19,15,11,17,11,5,92,87,73,30.22,29.92,9,1,19,0.00
2013-12-11,17,13,8,14,9,5,90,84,72,30.49,30.21,5,1,9,0.00
2013-12-12,21,14,9,18,12,5,90,88,83,30.49,30.19,4,1,8,0.00
2013-12-13,25,22,19,20,17,14,90,80,70,30.32,30.16,10,2,15,0.00
2013-12-14,20,17,13,19,14,9,98,87,78,30.32,29.94,11,5,18,0.00
2013-12-15,21,17,14,18,13,9,92,86,79,30.08,29.85,4,1,11,0.00
2013-12-16,22,16,12,14,11,8,88,80,67,30.20,30.03,6,1,11,0.02
2013-12-17,30,23,16,28,21,13,94,90,82,30.03,29.85,3,1,8,0.00
2013-12-18,29,25,22,24,19,14,94,78,60,30.14,29.82,10,2,16,0.00
2013-12-19,34,27,20,30,23,17,94,86,74,30.01,29.80,8,2,13,0.02
2013-12-20,31,29,28,30,27,25,94,92,91,29.92,29.79,8,4,15,0.00
2013-12-21,31,30,27,31,28,25,100,94,89,29.90,29.77,8,2,13,0.00
2013-12-22,29,27,23,27,25,21,94,91,88,30.04,29.64,8,3,13,0.01
2013-12-23,26,21,14,21,18,12,93,89,77,30.34,30.04,2,0,3,0.14
2013-12-24,20,14,6,16,11,3,92,88,81,30.52,30.34,0,0,0,0.00
2013-12-25,24,19,14,22,17,11,95,90,84,30.48,30.07,0,0,0,0.00
2013-12-26,25,23,20,23,20,16,94,89,79,30.25,30.03,3,0,6,0.00
2013-12-27,36,28,20,33,26,18,95,92,86,30.32,30.01,5,1,10,0.00
2013-12-28,44,36,23,36,31,21,96,85,71,30.07,29.83,8,2,14,0.21
2013-12-29,41,28,16,34,24,10,96,83,72,30.11,29.73,7,2,18,0.00
2013-12-30,16,14,12,10,8,4,87,78,68,30.31,30.11,3,0,6,0.00
2013-12-31,15,12,10,11,8,6,87,82,77,30.39,30.13,4,1,8,0.00
2014-1-1,14,10,4,6,3,1,90,74,62,30.47,30.34,9,3,13,0.00
2014-1-2,12,8,-3,6,2,-6,86,74,61,30.42,30.27,10,4,20,0.00